createdAt,value
2023-01-29T00:00:40.761Z,7.30
2023-01-29T00:03:29.647Z,6.90
2023-01-29T00:05:58.503Z,7.40
2023-01-29T00:08:27.732Z,7.40
2023-01-29T00:11:06.242Z,7.60
2023-01-29T00:13:35.619Z,8.40
2023-01-29T00:16:05.101Z,8.00
2023-01-29T00:18:33.949Z,7.80
2023-01-29T00:21:02.912Z,7.50
2023-01-29T00:23:31.908Z,7.70
2023-01-29T00:26:01.107Z,7.90
2023-01-29T00:28:30.006Z,7.80
2023-01-29T00:30:59.096Z,7.90
2023-01-29T00:33:29.759Z,8.00
2023-01-29T00:35:58.673Z,7.90
2023-01-29T00:38:27.810Z,7.80
2023-01-29T00:41:16.068Z,7.60
2023-01-29T00:44:03.185Z,7.30
2023-01-29T00:46:32.231Z,7.90
2023-01-29T00:49:01.387Z,7.40
2023-01-29T00:51:30.488Z,7.80
2023-01-29T00:54:02.950Z,7.20
2023-01-29T00:56:31.961Z,7.10
2023-01-29T00:59:00.860Z,7.90
2023-01-29T01:01:48.687Z,7.10
2023-01-29T01:04:17.667Z,8.10
2023-01-29T01:06:47.173Z,7.10
2023-01-29T01:09:34.600Z,7.20
2023-01-29T01:12:03.584Z,6.90
2023-01-29T01:14:35.355Z,8.10
2023-01-29T01:17:05.808Z,7.80
2023-01-29T01:19:36.161Z,6.50
2023-01-29T01:22:05.295Z,7.90
2023-01-29T01:24:34.603Z,7.70
2023-01-29T01:27:03.900Z,6.60
2023-01-29T01:29:33.226Z,7.40
2023-01-29T01:32:02.450Z,9.00
2023-01-29T01:34:31.409Z,7.80
2023-01-29T01:37:00.511Z,7.70
2023-01-29T01:39:30.006Z,6.90
2023-01-29T01:41:58.993Z,7.90
2023-01-29T01:44:55.134Z,8.00
2023-01-29T01:47:49.545Z,6.80
2023-01-29T01:50:32.461Z,7.80
2023-01-29T01:53:13.203Z,8.10
2023-01-29T01:55:51.345Z,7.90
2023-01-29T01:58:33.851Z,6.70
2023-01-29T02:01:07.744Z,8.60
2023-01-29T02:04:21.887Z,9.10
2023-01-29T02:07:12.807Z,7.90
2023-01-29T02:09:52.963Z,8.10
2023-01-29T02:12:22.837Z,7.50
2023-01-29T02:14:52.341Z,7.90
2023-01-29T02:17:21.306Z,8.10
2023-01-29T02:20:12.067Z,8.40
2023-01-29T02:23:34.247Z,7.60
2023-01-29T02:26:35.051Z,8.70
2023-01-29T02:29:27.698Z,9.20
2023-01-29T02:32:21.472Z,8.40
2023-01-29T02:38:04.819Z,8.60
2023-01-29T02:40:46.113Z,9.60
2023-01-29T02:43:27.752Z,6.50
2023-01-29T02:46:19.295Z,9.30
2023-01-29T02:49:16.175Z,8.60
2023-01-29T02:51:59.354Z,9.60
2023-01-29T02:54:39.243Z,8.30
2023-01-29T02:57:23.289Z,8.40
2023-01-29T03:00:18.251Z,9.20
2023-01-29T03:03:12.451Z,9.00
2023-01-29T03:05:57.297Z,8.10
2023-01-29T03:08:37.533Z,7.70
2023-01-29T03:11:07.547Z,8.90
2023-01-29T03:14:07.723Z,9.00
2023-01-29T03:16:50.438Z,9.20
2023-01-29T03:19:41.574Z,8.80
2023-01-29T03:22:22.112Z,9.20
2023-01-29T03:25:19.072Z,8.50
2023-01-29T03:28:12.244Z,7.80
2023-01-29T03:31:11.950Z,8.70
2023-01-29T03:34:24.891Z,7.90
2023-01-29T03:37:08.993Z,9.10
2023-01-29T03:39:38.025Z,7.90
2023-01-29T03:42:17.917Z,7.40
2023-01-29T03:45:24.361Z,9.20
2023-01-29T03:48:25.355Z,9.20
2023-01-29T03:51:12.277Z,8.20
2023-01-29T03:54:08.906Z,8.60
2023-01-29T03:56:52.018Z,8.40
2023-01-29T04:00:08.139Z,8.90
2023-01-29T04:03:19.424Z,8.30
2023-01-29T04:05:58.768Z,9.10
2023-01-29T04:08:37.184Z,7.50
2023-01-29T04:11:14.289Z,7.70
2023-01-29T04:13:44.066Z,7.40
2023-01-29T04:16:27.617Z,7.70
2023-01-29T04:19:08.695Z,7.50
2023-01-29T04:21:41.229Z,7.80
2023-01-29T04:24:12.523Z,8.30
2023-01-29T04:27:20.924Z,6.40
2023-01-29T04:30:16.504Z,7.90
2023-01-29T04:33:03.886Z,8.00
2023-01-29T04:36:08.058Z,7.10
2023-01-29T04:39:11.954Z,7.90
2023-01-29T04:42:15.990Z,9.50
2023-01-29T04:48:00.420Z,7.80
2023-01-29T04:50:45.967Z,7.40
2023-01-29T04:53:43.447Z,6.60
2023-01-29T04:56:47.235Z,8.30
2023-01-29T04:59:39.455Z,7.80
2023-01-29T05:02:11.382Z,6.20
2023-01-29T05:04:44.213Z,8.70
2023-01-29T05:07:15.532Z,7.20
2023-01-29T05:09:46.686Z,6.30
2023-01-29T05:12:17.773Z,5.00
2023-01-29T05:14:49.508Z,7.00
2023-01-29T05:17:20.904Z,6.30
2023-01-29T05:19:49.757Z,6.30
2023-01-29T05:22:22.868Z,6.30
2023-01-29T05:27:53.187Z,7.40
2023-01-29T05:30:21.960Z,5.80
2023-01-29T05:32:50.707Z,6.20
2023-01-29T05:35:19.459Z,6.00
2023-01-29T05:37:48.115Z,7.90
2023-01-29T05:40:17.227Z,6.80
2023-01-29T05:42:46.061Z,4.70
2023-01-29T05:45:14.895Z,6.10
2023-01-29T05:47:43.664Z,6.90
2023-01-29T05:50:14.164Z,5.80
2023-01-29T05:52:43.564Z,6.20
2023-01-29T05:55:12.290Z,6.70
2023-01-29T05:57:41.622Z,9.20
2023-01-29T06:00:13.353Z,6.30
2023-01-29T06:02:42.196Z,8.20
2023-01-29T06:05:11.037Z,8.30
2023-01-29T06:07:45.386Z,8.60
2023-01-29T06:10:19.059Z,8.40
2023-01-29T06:12:48.057Z,8.70
2023-01-29T06:15:16.859Z,7.80
2023-01-29T06:17:45.586Z,8.90
2023-01-29T06:20:15.022Z,9.30
2023-01-29T06:22:44.100Z,8.60
2023-01-29T06:25:12.934Z,8.30
2023-01-29T06:27:41.697Z,9.70
2023-01-29T06:30:11.417Z,7.30
2023-01-29T06:32:40.215Z,7.20
2023-01-29T06:35:10.398Z,8.70
2023-01-29T06:37:39.118Z,7.90
2023-01-29T06:40:08.937Z,9.60
2023-01-29T06:42:37.721Z,9.50
2023-01-29T06:45:07.281Z,9.70
2023-01-29T06:47:36.125Z,8.20
2023-01-29T06:50:05.518Z,10.00
2023-01-29T06:52:34.219Z,8.20
2023-01-29T06:55:02.912Z,8.10
2023-01-29T06:57:31.982Z,8.60
2023-01-29T07:00:00.862Z,9.30
2023-01-29T07:02:29.724Z,8.60
2023-01-29T07:04:58.451Z,8.40
2023-01-29T07:07:27.337Z,9.20
2023-01-29T07:09:56.152Z,8.10
2023-01-29T07:12:24.927Z,6.70
2023-01-29T07:14:53.673Z,7.20
2023-01-29T07:17:22.512Z,7.10
2023-01-29T07:19:51.306Z,7.80
2023-01-29T07:22:20.351Z,7.20
2023-01-29T07:24:49.165Z,7.00
2023-01-29T07:27:18.120Z,7.20
2023-01-29T07:29:46.885Z,6.00
2023-01-29T07:32:15.809Z,6.40
2023-01-29T07:34:44.667Z,7.40
2023-01-29T07:37:13.392Z,7.30
2023-01-29T07:39:42.187Z,7.90
2023-01-29T07:42:11.052Z,7.30
2023-01-29T07:44:39.916Z,6.80
2023-01-29T07:47:08.722Z,7.20
2023-01-29T07:49:37.444Z,6.80
2023-01-29T07:52:06.252Z,6.30
2023-01-29T07:54:34.904Z,6.40
2023-01-29T07:57:03.773Z,6.30
2023-01-29T07:59:32.564Z,6.40
2023-01-29T08:02:01.350Z,7.60
2023-01-29T08:04:30.480Z,7.20
2023-01-29T08:06:59.228Z,6.60
2023-01-29T08:09:27.997Z,7.00
2023-01-29T08:11:57.005Z,6.50
2023-01-29T08:14:25.768Z,6.10
2023-01-29T08:16:54.566Z,6.40
2023-01-29T08:19:23.375Z,4.80
2023-01-29T08:21:52.190Z,6.50
2023-01-29T08:24:21.018Z,5.30
2023-01-29T08:26:49.913Z,4.40
2023-01-29T08:29:18.732Z,5.50
2023-01-29T08:31:47.593Z,5.50
2023-01-29T08:34:16.380Z,5.30
2023-01-29T08:36:45.177Z,4.80
2023-01-29T08:39:14.035Z,4.70
2023-01-29T08:41:42.816Z,5.00
2023-01-29T08:44:11.675Z,5.60
2023-01-29T08:46:40.962Z,5.40
2023-01-29T08:49:09.934Z,4.80
2023-01-29T08:51:38.684Z,4.80
2023-01-29T08:54:07.406Z,5.80
2023-01-29T08:56:36.091Z,5.40
2023-01-29T08:59:04.863Z,5.80
2023-01-29T09:01:33.659Z,4.90
2023-01-29T09:04:02.508Z,5.10
2023-01-29T09:06:31.314Z,4.30
2023-01-29T09:09:00.217Z,5.10
2023-01-29T09:11:29.078Z,4.60
2023-01-29T09:13:57.959Z,4.70
2023-01-29T09:16:26.712Z,5.20
2023-01-29T09:18:55.585Z,5.10
2023-01-29T09:21:24.386Z,4.90
2023-01-29T09:23:53.104Z,5.10
2023-01-29T09:26:21.845Z,4.80
2023-01-29T09:28:50.705Z,5.80
2023-01-29T09:31:19.563Z,5.60
2023-01-29T09:33:48.287Z,6.70
2023-01-29T09:36:16.953Z,6.20
2023-01-29T09:38:45.746Z,5.60
2023-01-29T09:41:51.727Z,5.40
2023-01-29T09:44:46.449Z,4.50
2023-01-29T09:47:18.561Z,4.80
2023-01-29T09:50:22.518Z,5.00
2023-01-29T09:52:59.891Z,5.80
2023-01-29T09:55:39.813Z,4.80
2023-01-29T09:58:44.143Z,5.00
2023-01-29T10:01:24.580Z,4.60
2023-01-29T10:04:21.043Z,4.70
2023-01-29T10:07:17.066Z,4.70
2023-01-29T10:10:10.045Z,4.80
2023-01-29T10:13:33.138Z,5.00
2023-01-29T10:16:35.588Z,4.70
2023-01-29T10:19:16.689Z,4.60
2023-01-29T10:22:22.514Z,4.80
2023-01-29T10:25:13.319Z,4.90
2023-01-29T10:27:49.878Z,4.70
2023-01-29T10:30:45.976Z,4.40
2023-01-29T10:34:01.119Z,4.40
2023-01-29T10:36:43.145Z,4.20
2023-01-29T10:39:22.832Z,3.80
2023-01-29T10:42:05.936Z,4.60
2023-01-29T10:44:34.694Z,5.10
2023-01-29T10:48:02.188Z,6.00
2023-01-29T10:51:12.350Z,4.80
2023-01-29T10:54:10.043Z,5.30
2023-01-29T10:57:06.510Z,3.80
2023-01-29T11:00:13.487Z,4.10
2023-01-29T11:02:47.873Z,4.10
2023-01-29T11:05:33.503Z,3.70
2023-01-29T11:08:20.116Z,4.10
2023-01-29T11:11:19.697Z,4.50
2023-01-29T11:14:07.490Z,5.00
2023-01-29T11:16:47.111Z,4.60
2023-01-29T11:19:17.261Z,4.90
2023-01-29T11:22:01.739Z,4.50
2023-01-29T11:24:31.164Z,4.10
2023-01-29T11:27:00.847Z,4.40
2023-01-29T11:29:48.403Z,4.40
2023-01-29T11:32:27.154Z,4.90
2023-01-29T11:35:07.029Z,4.90
2023-01-29T11:37:41.778Z,5.20
2023-01-29T11:40:19.663Z,5.60
2023-01-29T11:42:50.036Z,5.10
2023-01-29T11:45:32.731Z,5.60
2023-01-29T11:48:02.728Z,5.70
2023-01-29T11:50:34.175Z,5.90
2023-01-29T11:53:04.115Z,4.80
2023-01-29T11:55:49.923Z,6.70
2023-01-29T11:58:32.689Z,5.80
2023-01-29T12:01:02.100Z,4.80
2023-01-29T12:03:35.654Z,4.80
2023-01-29T12:06:47.980Z,4.90
2023-01-29T12:09:21.243Z,5.60
2023-01-29T12:11:50.263Z,5.50
2023-01-29T12:14:34.553Z,5.20
2023-01-29T12:17:20.014Z,5.70
2023-01-29T12:19:59.563Z,7.00
2023-01-29T12:23:09.030Z,7.40
2023-01-29T12:25:59.423Z,5.00
2023-01-29T12:28:37.320Z,9.10
2023-01-29T12:31:16.360Z,8.20
2023-01-29T12:34:43.728Z,6.00
2023-01-29T12:37:18.487Z,5.10
2023-01-29T12:39:48.566Z,4.80
2023-01-29T12:42:23.827Z,5.30
2023-01-29T12:44:59.744Z,5.30
2023-01-29T12:47:40.105Z,4.80
2023-01-29T12:50:32.783Z,5.40
2023-01-29T12:53:20.231Z,5.40
2023-01-29T12:55:56.746Z,3.70
2023-01-29T12:58:56.538Z,4.10
2023-01-29T13:01:33.958Z,5.00
2023-01-29T13:04:11.892Z,5.10
2023-01-29T13:06:48.366Z,5.30
2023-01-29T13:09:29.265Z,5.30
2023-01-29T13:12:22.000Z,5.50
2023-01-29T13:15:04.192Z,5.30
2023-01-29T13:17:51.568Z,5.20
2023-01-29T13:20:33.562Z,3.90
2023-01-29T13:23:22.187Z,3.20
2023-01-29T13:25:53.033Z,3.90
2023-01-29T13:28:27.451Z,4.70
2023-01-29T13:31:20.571Z,4.10
2023-01-29T13:34:02.265Z,5.10
2023-01-29T13:36:32.296Z,4.90
2023-01-29T13:39:08.360Z,4.70
2023-01-29T13:41:43.765Z,4.60
2023-01-29T13:44:25.982Z,4.40
2023-01-29T13:47:07.322Z,5.40
2023-01-29T13:49:56.661Z,5.10
2023-01-29T13:52:43.518Z,5.00
2023-01-29T13:55:15.685Z,6.50
2023-01-29T13:57:44.512Z,6.20
2023-01-29T14:00:22.475Z,5.90
2023-01-29T14:02:57.309Z,5.50
2023-01-29T14:05:32.133Z,6.00
2023-01-29T14:08:09.836Z,6.10
2023-01-29T14:10:38.766Z,6.70
2023-01-29T14:13:19.513Z,6.00
2023-01-29T14:15:57.484Z,6.40
2023-01-29T14:18:28.750Z,5.10
2023-01-29T14:21:28.520Z,6.50
2023-01-29T14:24:09.241Z,9.90
2023-01-29T14:26:45.820Z,6.20
2023-01-29T14:29:34.162Z,6.10
2023-01-29T14:32:20.767Z,6.20
2023-01-29T14:34:56.615Z,7.40
2023-01-29T14:37:36.164Z,6.60
2023-01-29T14:40:16.870Z,5.20
2023-01-29T14:43:03.594Z,5.70
2023-01-29T14:45:42.093Z,6.00
2023-01-29T14:48:10.791Z,8.30
2023-01-29T14:50:49.601Z,7.80
2023-01-29T14:53:49.358Z,6.80
2023-01-29T14:56:29.363Z,9.10
2023-01-29T14:59:27.401Z,7.80
2023-01-29T15:02:01.028Z,8.00
2023-01-29T15:04:49.436Z,7.90
2023-01-29T15:07:39.475Z,8.00
2023-01-29T15:10:43.368Z,9.10
2023-01-29T15:16:26.279Z,7.10
2023-01-29T15:19:06.425Z,6.10
2023-01-29T15:21:35.181Z,7.80
2023-01-29T15:24:06.929Z,8.70
2023-01-29T15:26:36.799Z,9.00
2023-01-29T15:29:06.430Z,7.10
2023-01-29T15:31:35.758Z,8.50
2023-01-29T15:34:07.968Z,10.30
2023-01-29T15:36:37.529Z,10.90
2023-01-29T15:39:12.506Z,9.50
2023-01-29T15:41:44.403Z,11.80
2023-01-29T15:44:18.860Z,6.90
2023-01-29T15:46:57.257Z,8.50
2023-01-29T15:49:38.154Z,10.10
2023-01-29T15:52:16.273Z,10.40
2023-01-29T15:54:45.805Z,11.40
2023-01-29T15:57:29.682Z,11.90
2023-01-29T15:59:59.148Z,10.30
2023-01-29T16:02:42.869Z,11.10
2023-01-29T16:05:20.587Z,10.00
2023-01-29T16:07:51.468Z,11.10
2023-01-29T16:10:23.077Z,11.30
2023-01-29T16:12:53.424Z,9.20
2023-01-29T16:15:40.427Z,7.10
2023-01-29T16:18:39.509Z,10.00
2023-01-29T16:21:23.354Z,9.80
2023-01-29T16:23:56.968Z,10.10
2023-01-29T16:26:29.961Z,8.10
2023-01-29T16:29:12.155Z,8.80
2023-01-29T16:31:43.417Z,12.10
2023-01-29T16:34:29.784Z,10.30
2023-01-29T16:37:02.119Z,10.20
2023-01-29T16:39:36.862Z,10.30
2023-01-29T16:42:20.206Z,9.80
2023-01-29T16:45:00.893Z,10.00
2023-01-29T16:47:37.608Z,8.80
2023-01-29T16:50:18.219Z,11.00
2023-01-29T16:53:01.047Z,8.20
2023-01-29T16:55:37.672Z,9.20
2023-01-29T16:58:33.012Z,13.70
2023-01-29T17:01:11.034Z,12.10
2023-01-29T17:03:41.699Z,12.00
2023-01-29T17:06:13.968Z,10.30
2023-01-29T17:08:43.532Z,8.70
2023-01-29T17:11:23.808Z,10.10
2023-01-29T17:13:56.229Z,8.90
2023-01-29T17:16:32.851Z,9.00
2023-01-29T17:19:01.944Z,11.00
2023-01-29T17:21:30.999Z,9.20
2023-01-29T17:23:59.849Z,9.50
2023-01-29T17:26:31.567Z,11.00
2023-01-29T17:29:00.292Z,8.40
2023-01-29T17:31:29.120Z,10.50
2023-01-29T17:33:57.999Z,9.80
2023-01-29T17:36:26.852Z,10.90
2023-01-29T17:38:55.628Z,11.40
2023-01-29T17:41:28.219Z,10.90
2023-01-29T17:43:56.943Z,9.20
2023-01-29T17:46:25.803Z,11.20
2023-01-29T17:48:54.703Z,10.30
2023-01-29T17:51:24.938Z,5.80
2023-01-29T17:53:53.868Z,10.50
2023-01-29T17:56:32.728Z,9.60
2023-01-29T17:59:02.088Z,7.80
2023-01-29T18:01:30.988Z,9.90
2023-01-29T18:03:59.958Z,9.40
2023-01-29T18:06:30.347Z,11.10
2023-01-29T18:08:59.105Z,10.80
2023-01-29T18:11:28.776Z,11.30
2023-01-29T18:13:58.195Z,7.60
2023-01-29T18:16:27.209Z,9.20
2023-01-29T18:18:56.149Z,10.40
2023-01-29T18:21:24.914Z,10.90
2023-01-29T18:23:53.717Z,8.50
2023-01-29T18:26:22.952Z,10.10
2023-01-29T18:28:51.806Z,8.40
2023-01-29T18:31:20.645Z,9.30
2023-01-29T18:33:49.502Z,9.60
2023-01-29T18:36:18.436Z,7.80
2023-01-29T18:38:47.198Z,7.30
2023-01-29T18:41:16.332Z,8.30
2023-01-29T18:43:45.621Z,6.50
2023-01-29T18:46:14.568Z,6.60
2023-01-29T18:48:43.348Z,6.80
2023-01-29T18:51:12.323Z,7.80
2023-01-29T18:53:41.163Z,7.90
2023-01-29T18:56:10.844Z,6.60
2023-01-29T18:58:40.283Z,8.40
2023-01-29T19:01:12.068Z,6.80
2023-01-29T19:03:42.189Z,6.90
2023-01-29T19:06:12.513Z,7.70
2023-01-29T19:08:43.175Z,7.90
2023-01-29T19:11:13.016Z,6.80
2023-01-29T19:13:43.007Z,8.20
2023-01-29T19:16:13.693Z,7.50
2023-01-29T19:18:42.631Z,7.90
2023-01-29T19:21:15.338Z,8.70
2023-01-29T19:23:45.051Z,9.10
2023-01-29T19:26:13.935Z,7.50
2023-01-29T19:28:42.948Z,7.20
2023-01-29T19:31:11.800Z,8.70
2023-01-29T19:33:40.920Z,7.30
2023-01-29T19:36:10.525Z,7.70
2023-01-29T19:38:40.112Z,8.10
2023-01-29T19:41:09.004Z,8.90
2023-01-29T19:43:40.942Z,8.20
2023-01-29T19:46:10.694Z,8.90
2023-01-29T19:48:39.587Z,8.50
2023-01-29T19:51:11.066Z,9.40
2023-01-29T19:53:44.933Z,9.30
2023-01-29T19:56:17.674Z,6.20
2023-01-29T19:58:47.215Z,8.40
2023-01-29T20:01:21.438Z,8.20
2023-01-29T20:03:50.507Z,9.60
2023-01-29T20:06:24.208Z,8.50
2023-01-29T20:08:53.253Z,9.30
2023-01-29T20:11:23.645Z,9.40
2023-01-29T20:13:53.680Z,9.70
2023-01-29T20:16:23.286Z,7.30
2023-01-29T20:18:52.433Z,9.10
2023-01-29T20:21:22.542Z,7.90
2023-01-29T20:23:52.443Z,9.50
2023-01-29T20:26:22.216Z,8.10
2023-01-29T20:28:51.138Z,10.00
2023-01-29T20:31:19.883Z,8.80
2023-01-29T20:33:48.635Z,8.50
2023-01-29T20:36:17.364Z,7.10
2023-01-29T20:38:46.144Z,8.70
2023-01-29T20:41:17.911Z,8.90
2023-01-29T20:43:47.518Z,8.60
2023-01-29T20:46:16.251Z,8.80
2023-01-29T20:48:45.017Z,9.50
2023-01-29T20:51:16.941Z,10.10
2023-01-29T20:53:48.151Z,9.70
2023-01-29T20:56:17.465Z,8.90
2023-01-29T20:58:47.036Z,6.80
2023-01-29T21:01:19.904Z,9.30
2023-01-29T21:03:48.828Z,10.00
2023-01-29T21:06:17.612Z,10.40
2023-01-29T21:08:46.435Z,7.40
2023-01-29T21:11:15.178Z,9.20
2023-01-29T21:13:44.155Z,10.60
2023-01-29T21:16:13.725Z,10.40
2023-01-29T21:18:42.625Z,10.50
2023-01-29T21:21:11.475Z,10.30
2023-01-29T21:23:40.204Z,9.50
2023-01-29T21:26:09.210Z,7.00
2023-01-29T21:28:38.116Z,8.10
2023-01-29T21:31:14.602Z,8.00
2023-01-29T21:33:44.101Z,7.90
2023-01-29T21:36:13.066Z,9.50
2023-01-29T21:38:41.933Z,8.40
2023-01-29T21:41:10.862Z,8.40
2023-01-29T21:43:40.031Z,7.90
2023-01-29T21:46:12.219Z,8.60
2023-01-29T21:48:41.763Z,9.30
2023-01-29T21:51:10.474Z,9.90
2023-01-29T21:53:39.362Z,8.20
2023-01-29T21:56:08.283Z,9.80
2023-01-29T21:58:36.976Z,6.50
2023-01-29T22:01:18.554Z,8.40
2023-01-29T22:03:56.269Z,8.20
2023-01-29T22:06:25.277Z,9.60
2023-01-29T22:08:54.106Z,8.90
2023-01-29T22:11:23.098Z,9.50
2023-01-29T22:13:51.844Z,10.80
2023-01-29T22:16:20.571Z,10.80
2023-01-29T22:18:50.073Z,11.10
2023-01-29T22:21:18.921Z,11.30
2023-01-29T22:23:52.284Z,10.10
2023-01-29T22:26:21.167Z,11.40
2023-01-29T22:28:50.172Z,9.60
2023-01-29T22:31:18.964Z,8.50
2023-01-29T22:33:47.660Z,9.60
2023-01-29T22:36:16.822Z,9.70
2023-01-29T22:38:47.060Z,9.10
2023-01-29T22:41:15.844Z,10.00
2023-01-29T22:43:44.577Z,8.10
2023-01-29T22:46:13.507Z,8.70
2023-01-29T22:48:42.347Z,8.90
2023-01-29T22:51:11.099Z,8.80
2023-01-29T22:53:54.109Z,8.60
2023-01-29T22:56:26.987Z,9.40
2023-01-29T22:58:58.833Z,8.10
2023-01-29T23:01:32.585Z,8.50
2023-01-29T23:04:01.374Z,7.90
2023-01-29T23:06:30.163Z,8.40
2023-01-29T23:08:58.907Z,7.50
2023-01-29T23:11:27.941Z,8.10
2023-01-29T23:13:56.741Z,6.80
2023-01-29T23:16:28.213Z,5.40
2023-01-29T23:18:57.289Z,8.70
2023-01-29T23:21:27.361Z,9.40
2023-01-29T23:23:58.569Z,9.10
2023-01-29T23:26:47.820Z,8.90
2023-01-29T23:29:16.839Z,8.30
2023-01-29T23:31:45.601Z,8.80
2023-01-29T23:34:14.513Z,7.10
2023-01-29T23:36:43.361Z,6.90
2023-01-29T23:39:12.423Z,8.50
2023-01-29T23:41:41.272Z,9.20
2023-01-29T23:44:10.084Z,8.00
2023-01-29T23:46:39.046Z,8.30
2023-01-29T23:49:08.729Z,9.10
2023-01-29T23:51:37.507Z,8.30
2023-01-29T23:54:06.480Z,7.40
2023-01-29T23:56:35.389Z,8.80
2023-01-29T23:59:04.168Z,6.20
